Time;durP1;ratioP1;P1;durP2;ratioP2;P2;SDS_P1;SDS_P2;PMS_P1;PMS_P2;Temp;Humidity;BMP_temperature;BMP_pressure;BME280_temperature;BME280_humidity;BME280_pressure;Samples;Min_cycle;Max_cycle;Signal;HPM_P1;HPM_P2
2022/05/31 00:02:11;;;;;;;7.28;4.65;;;;;;;;;;5085122;28;20166;-65
2022/05/31 00:04:36;;;;;;;8.35;4.63;;;;;;;;;;5085593;28;20040;-65
2022/05/31 00:07:03;;;;;;;10.73;4.97;;;;;;;;;;5083769;28;20040;-65
2022/05/31 00:09:29;;;;;;;7.07;4.75;;;;;;;;;;5081793;28;20409;-65
2022/05/31 00:11:55;;;;;;;11.40;4.43;;;;;;;;;;5074467;28;20521;-65
2022/05/31 00:14:21;;;;;;;7.07;4.85;;;;;;;;;;5089527;28;20048;-65
2022/05/31 00:16:47;;;;;;;8.35;4.60;;;;;;;;;;5077501;28;20470;-65
2022/05/31 00:19:15;;;;;;;6.20;4.70;;;;;;;;;;5083287;28;20067;-65
2022/05/31 00:21:53;;;;;;;6.93;4.72;;;;;;;;;;5084999;28;20051;-65
2022/05/31 00:24:20;;;;;;;6.80;4.45;;;;;;;;;;5079160;28;20024;-65
2022/05/31 00:26:47;;;;;;;8.48;4.70;;;;;;;;;;5078393;28;20088;-65
2022/05/31 00:29:12;;;;;;;8.02;4.63;;;;;;;;;;5083956;28;20113;-65
2022/05/31 00:31:41;;;;;;;10.05;4.80;;;;;;;;;;5076148;28;20105;-65
2022/05/31 00:34:08;;;;;;;8.32;4.55;;;;;;;;;;5071465;28;20123;-65
2022/05/31 00:36:36;;;;;;;7.65;4.50;;;;;;;;;;5067897;28;20115;-65
2022/05/31 00:39:02;;;;;;;7.78;4.78;;;;;;;;;;5073218;28;20024;-65
2022/05/31 00:41:28;;;;;;;11.35;4.55;;;;;;;;;;5085916;28;20081;-65
2022/05/31 00:44:01;;;;;;;6.97;4.75;;;;;;;;;;5087090;28;20493;-65
2022/05/31 00:46:37;;;;;;;6.85;4.55;;;;;;;;;;5076432;28;20040;-65
2022/05/31 00:49:05;;;;;;;8.20;4.30;;;;;;;;;;5085582;28;20036;-65
2022/05/31 00:51:41;;;;;;;7.03;4.47;;;;;;;;;;5084537;28;20046;-65
2022/05/31 00:54:12;;;;;;;6.88;4.28;;;;;;;;;;5077981;28;20517;-65
2022/05/31 00:56:38;;;;;;;6.07;4.28;;;;;;;;;;5073532;28;20532;-65
2022/05/31 00:59:23;;;;;;;6.22;4.28;;;;;;;;;;5078567;28;20036;-65
2022/05/31 01:01:51;;;;;;;6.38;4.35;;;;;;;;;;5073781;28;20114;-65
2022/05/31 01:04:18;;;;;;;7.78;4.68;;;;;;;;;;5078759;28;20040;-65
2022/05/31 01:06:44;;;;;;;6.05;4.70;;;;;;;;;;5082723;28;20454;-65
2022/05/31 01:09:09;;;;;;;10.10;5.13;;;;;;;;;;5088406;28;20481;-65
2022/05/31 01:11:41;;;;;;;7.05;4.20;;;;;;;;;;5091092;28;20040;-65
2022/05/31 01:14:07;;;;;;;7.47;4.43;;;;;;;;;;5097852;28;20500;-65
2022/05/31 01:16:32;;;;;;;8.30;4.45;;;;;;;;;;5091116;28;20036;-65
2022/05/31 01:18:58;;;;;;;6.88;4.53;;;;;;;;;;5089495;28;20044;-65
2022/05/31 01:21:24;;;;;;;9.25;4.70;;;;;;;;;;5090930;28;20056;-65
2022/05/31 01:24:08;;;;;;;9.88;4.82;;;;;;;;;;5080725;28;20032;-66
2022/05/31 01:26:55;;;;;;;7.40;4.60;;;;;;;;;;5078985;28;20047;-65
2022/05/31 01:29:40;;;;;;;6.72;4.90;;;;;;;;;;5073835;28;20025;-65
2022/05/31 01:32:13;;;;;;;7.13;4.75;;;;;;;;;;5078709;28;20035;-65
2022/05/31 01:34:55;;;;;;;8.40;4.85;;;;;;;;;;5082149;28;20123;-65
2022/05/31 01:37:25;;;;;;;7.95;5.10;;;;;;;;;;5082047;28;20134;-65
2022/05/31 01:39:56;;;;;;;8.48;4.93;;;;;;;;;;5082666;28;20016;-65
2022/05/31 01:42:53;;;;;;;8.98;5.07;;;;;;;;;;5077903;28;20023;-65
2022/05/31 01:45:26;;;;;;;6.75;4.70;;;;;;;;;;5055876;28;20684;-65
2022/05/31 01:47:53;;;;;;;6.75;4.60;;;;;;;;;;5083102;28;20141;-65
2022/05/31 01:50:20;;;;;;;8.15;4.70;;;;;;;;;;5089976;28;20745;-65
2022/05/31 01:52:48;;;;;;;6.97;4.68;;;;;;;;;;5090668;28;20504;-65
2022/05/31 01:55:15;;;;;;;9.85;4.85;;;;;;;;;;5068899;28;20468;-65
2022/05/31 01:57:44;;;;;;;7.78;4.82;;;;;;;;;;5072954;28;20020;-65
2022/05/31 02:00:12;;;;;;;6.15;4.30;;;;;;;;;;5093727;28;20039;-65
2022/05/31 02:02:37;;;;;;;8.45;4.43;;;;;;;;;;5091831;28;20593;-65
2022/05/31 02:05:03;;;;;;;9.68;4.75;;;;;;;;;;5084288;28;20118;-65
2022/05/31 02:07:30;;;;;;;6.43;4.30;;;;;;;;;;5087660;28;20037;-65
2022/05/31 02:09:56;;;;;;;6.35;3.92;;;;;;;;;;5088161;28;20028;-65
2022/05/31 02:12:28;;;;;;;8.15;4.50;;;;;;;;;;5089367;28;20519;-65
2022/05/31 02:14:54;;;;;;;6.80;4.40;;;;;;;;;;5088178;28;20416;-65
2022/05/31 02:17:20;;;;;;;5.88;4.15;;;;;;;;;;5085125;28;20036;-65
2022/05/31 02:19:46;;;;;;;6.97;4.20;;;;;;;;;;5084961;28;20361;-65
2022/05/31 02:22:15;;;;;;;6.38;4.10;;;;;;;;;;5086780;28;20655;-65
2022/05/31 02:24:40;;;;;;;6.00;4.25;;;;;;;;;;5089468;28;20027;-65
2022/05/31 02:27:07;;;;;;;6.78;4.20;;;;;;;;;;5090661;28;20032;-65
2022/05/31 02:29:35;;;;;;;7.53;4.40;;;;;;;;;;5086339;28;20036;-65
2022/05/31 02:32:03;;;;;;;9.95;4.80;;;;;;;;;;5072331;28;20032;-65
2022/05/31 02:34:37;;;;;;;10.15;4.35;;;;;;;;;;5085473;28;20391;-65
2022/05/31 02:37:03;;;;;;;7.20;4.65;;;;;;;;;;5089247;28;20031;-65
2022/05/31 02:39:29;;;;;;;6.20;4.28;;;;;;;;;;5090373;28;20027;-65
2022/05/31 02:41:55;;;;;;;9.93;5.38;;;;;;;;;;5076658;28;20028;-65
2022/05/31 02:44:20;;;;;;;9.70;4.88;;;;;;;;;;5089233;28;20123;-65
2022/05/31 02:46:46;;;;;;;6.13;4.55;;;;;;;;;;5087771;28;20074;-65
2022/05/31 02:49:12;;;;;;;6.60;4.75;;;;;;;;;;5087183;28;20095;-65
2022/05/31 02:51:41;;;;;;;6.95;4.85;;;;;;;;;;5088111;28;20031;-65
2022/05/31 02:54:07;;;;;;;7.15;4.95;;;;;;;;;;5089800;28;20016;-65
2022/05/31 02:56:32;;;;;;;5.85;4.03;;;;;;;;;;5089429;28;20588;-65
2022/05/31 02:58:58;;;;;;;6.70;4.70;;;;;;;;;;5087713;28;20141;-65
2022/05/31 03:01:27;;;;;;;7.15;4.30;;;;;;;;;;5081417;28;20043;-65
2022/05/31 03:03:53;;;;;;;7.63;4.20;;;;;;;;;;5088479;28;20481;-65
2022/05/31 03:06:20;;;;;;;6.65;3.97;;;;;;;;;;5086300;28;20448;-65
2022/05/31 03:08:46;;;;;;;6.20;4.40;;;;;;;;;;5089380;28;20030;-65
2022/05/31 03:11:31;;;;;;;7.03;4.60;;;;;;;;;;5087616;28;20032;-65
2022/05/31 03:14:14;;;;;;;6.68;4.32;;;;;;;;;;5094215;28;20542;-65
2022/05/31 03:16:42;;;;;;;6.97;4.40;;;;;;;;;;5088580;28;20127;-65
2022/05/31 03:19:14;;;;;;;6.63;4.00;;;;;;;;;;5086987;28;20028;-65
2022/05/31 03:21:47;;;;;;;7.77;4.60;;;;;;;;;;5086315;28;20404;-65
2022/05/31 03:24:23;;;;;;;9.10;4.38;;;;;;;;;;5082943;28;20500;-65
2022/05/31 03:26:52;;;;;;;9.18;4.68;;;;;;;;;;5086379;28;20036;-65
2022/05/31 03:29:17;;;;;;;8.15;4.35;;;;;;;;;;5086927;28;20089;-65
2022/05/31 03:31:43;;;;;;;10.05;4.72;;;;;;;;;;5089706;28;20032;-65
2022/05/31 03:34:09;;;;;;;6.85;4.65;;;;;;;;;;5088716;28;20185;-65
2022/05/31 03:36:34;;;;;;;6.10;4.40;;;;;;;;;;5088176;28;20035;-65
2022/05/31 03:39:00;;;;;;;7.40;4.80;;;;;;;;;;5087366;28;20808;-65
2022/05/31 03:41:25;;;;;;;8.35;5.03;;;;;;;;;;5081227;28;20086;-65
2022/05/31 03:43:51;;;;;;;10.20;4.75;;;;;;;;;;5071542;28;20505;-65
2022/05/31 03:46:16;;;;;;;6.78;4.55;;;;;;;;;;5086702;28;20028;-65
2022/05/31 03:48:41;;;;;;;8.38;5.53;;;;;;;;;;5087750;28;20247;-65
2022/05/31 03:51:11;;;;;;;8.65;4.93;;;;;;;;;;5076683;28;20028;-65
2022/05/31 03:53:37;;;;;;;6.20;4.40;;;;;;;;;;5086799;28;20027;-65
2022/05/31 03:56:05;;;;;;;7.15;4.63;;;;;;;;;;5088198;28;20062;-65
2022/05/31 03:58:31;;;;;;;6.95;4.50;;;;;;;;;;5083927;28;20600;-65
2022/05/31 04:00:57;;;;;;;7.50;4.70;;;;;;;;;;5087532;28;20107;-65
2022/05/31 04:03:23;;;;;;;8.48;5.00;;;;;;;;;;5087213;28;20056;-65
2022/05/31 04:05:49;;;;;;;9.98;5.18;;;;;;;;;;5075726;28;20024;-65
2022/05/31 04:08:15;;;;;;;6.82;4.40;;;;;;;;;;5099607;28;20039;-65
2022/05/31 04:10:43;;;;;;;7.20;4.60;;;;;;;;;;5086886;28;20039;-65
2022/05/31 04:13:09;;;;;;;8.38;5.22;;;;;;;;;;5091008;28;20038;-65
2022/05/31 04:15:34;;;;;;;8.88;4.68;;;;;;;;;;5085068;28;20020;-65
2022/05/31 04:18:01;;;;;;;8.32;5.07;;;;;;;;;;5087414;28;20041;-65
2022/05/31 04:20:27;;;;;;;7.38;4.70;;;;;;;;;;5085951;28;20552;-65
2022/05/31 04:23:57;;;;;;;10.05;4.97;;;;;;;;;;5085702;28;20028;-65
2022/05/31 04:25:37;;;;;;;9.02;4.82;;;;;;;;;;5086700;28;20085;-65
2022/05/31 04:28:03;;;;;;;7.18;4.95;;;;;;;;;;5087239;28;20028;-65
2022/05/31 04:30:28;;;;;;;7.78;4.85;;;;;;;;;;5087787;28;20047;-65
2022/05/31 04:32:53;;;;;;;9.30;5.35;;;;;;;;;;5082944;28;20055;-65
2022/05/31 04:35:19;;;;;;;7.50;4.72;;;;;;;;;;5087042;28;20046;-65
2022/05/31 04:37:44;;;;;;;11.50;4.78;;;;;;;;;;5085543;28;20036;-65
2022/05/31 04:40:10;;;;;;;7.70;4.72;;;;;;;;;;5086856;28;20188;-65
2022/05/31 04:42:37;;;;;;;6.70;4.72;;;;;;;;;;5084591;28;20026;-65
2022/05/31 04:45:03;;;;;;;8.15;4.93;;;;;;;;;;5081058;28;20016;-65
2022/05/31 04:47:29;;;;;;;7.05;4.85;;;;;;;;;;5084469;28;20039;-65
2022/05/31 04:49:54;;;;;;;9.40;4.85;;;;;;;;;;5085413;28;20044;-65
2022/05/31 04:52:19;;;;;;;7.45;4.85;;;;;;;;;;5083053;28;20044;-69
2022/05/31 04:54:45;;;;;;;8.32;5.40;;;;;;;;;;5072479;28;20416;-64
2022/05/31 04:57:10;;;;;;;8.02;4.80;;;;;;;;;;5077723;28;20009;-65
2022/05/31 04:59:36;;;;;;;6.82;4.72;;;;;;;;;;5074824;28;20428;-66
2022/05/31 05:02:01;;;;;;;8.20;5.03;;;;;;;;;;5079858;28;20086;-66
2022/05/31 05:04:26;;;;;;;8.80;5.25;;;;;;;;;;5067940;28;20063;-66
2022/05/31 05:06:52;;;;;;;8.10;4.68;;;;;;;;;;5077859;28;20024;-66
2022/05/31 05:09:17;;;;;;;7.53;4.45;;;;;;;;;;5067028;28;20025;-66
2022/05/31 05:11:45;;;;;;;10.05;4.88;;;;;;;;;;5076665;28;20082;-67
2022/05/31 05:14:10;;;;;;;9.70;5.40;;;;;;;;;;5085276;28;20036;-67
2022/05/31 05:16:36;;;;;;;9.65;5.18;;;;;;;;;;5082728;28;20413;-66
2022/05/31 05:19:01;;;;;;;7.97;5.15;;;;;;;;;;5078737;28;20786;-66
2022/05/31 05:21:27;;;;;;;9.50;5.20;;;;;;;;;;5076329;28;20119;-66
2022/05/31 05:23:52;;;;;;;6.55;5.03;;;;;;;;;;5075418;28;20039;-66
2022/05/31 05:26:17;;;;;;;8.45;5.20;;;;;;;;;;5079450;28;20564;-65
2022/05/31 05:31:33;;;;;;;9.10;5.32;;;;;;;;;;5084612;28;20087;-66
2022/05/31 05:34:00;;;;;;;11.38;5.55;;;;;;;;;;5081163;28;20034;-65
2022/05/31 05:36:25;;;;;;;7.82;5.20;;;;;;;;;;5083143;28;20085;-65
2022/05/31 05:38:51;;;;;;;10.70;5.82;;;;;;;;;;5075021;28;20024;-65
2022/05/31 05:41:18;;;;;;;10.55;5.68;;;;;;;;;;5082243;28;20044;-65
2022/05/31 05:43:44;;;;;;;11.88;5.55;;;;;;;;;;5079130;28;20064;-65
2022/05/31 05:46:25;;;;;;;10.95;6.05;;;;;;;;;;5083489;28;20059;-66
2022/05/31 05:48:51;;;;;;;12.15;5.80;;;;;;;;;;5076635;28;20164;-66
2022/05/31 05:51:26;;;;;;;11.07;5.88;;;;;;;;;;5074088;28;20111;-66
2022/05/31 05:53:52;;;;;;;12.07;6.22;;;;;;;;;;5073741;28;20510;-65
2022/05/31 05:56:18;;;;;;;13.15;7.18;;;;;;;;;;5085568;28;20044;-66
2022/05/31 05:58:44;;;;;;;10.60;6.07;;;;;;;;;;5082968;28;20414;-65
2022/05/31 06:01:36;;;;;;;16.50;6.80;;;;;;;;;;5082580;28;20078;-65
2022/05/31 06:04:07;;;;;;;12.38;6.50;;;;;;;;;;5075141;28;20052;-66
2022/05/31 06:06:34;;;;;;;13.50;6.70;;;;;;;;;;5082315;28;20025;-65
2022/05/31 06:09:03;;;;;;;11.15;6.18;;;;;;;;;;5086760;28;20084;-66
2022/05/31 06:11:32;;;;;;;13.68;6.53;;;;;;;;;;5077130;28;20050;-65
2022/05/31 06:14:26;;;;;;;12.18;6.00;;;;;;;;;;5083720;28;20032;-65
2022/05/31 06:16:56;;;;;;;13.27;6.45;;;;;;;;;;5075069;28;20047;-65
2022/05/31 06:19:30;;;;;;;12.57;6.60;;;;;;;;;;5086081;28;20063;-65
2022/05/31 06:21:55;;;;;;;12.68;5.70;;;;;;;;;;5079971;28;20119;-65
2022/05/31 06:24:23;;;;;;;10.43;6.53;;;;;;;;;;5084541;28;20126;-65
2022/05/31 06:26:49;;;;;;;11.07;6.13;;;;;;;;;;5072171;28;20059;-65
2022/05/31 06:29:14;;;;;;;10.55;6.10;;;;;;;;;;5078963;28;20052;-65
2022/05/31 06:31:39;;;;;;;10.57;5.55;;;;;;;;;;5083170;28;20521;-65
2022/05/31 06:34:04;;;;;;;9.98;5.65;;;;;;;;;;5082235;28;20042;-65
2022/05/31 06:36:30;;;;;;;8.80;5.72;;;;;;;;;;5077345;28;20046;-64
2022/05/31 06:38:56;;;;;;;12.40;6.63;;;;;;;;;;5084487;28;20501;-65
2022/05/31 06:41:21;;;;;;;11.13;5.95;;;;;;;;;;5078610;28;20131;-66
2022/05/31 06:43:47;;;;;;;10.40;5.70;;;;;;;;;;5075426;28;20054;-66
2022/05/31 06:46:13;;;;;;;16.10;7.18;;;;;;;;;;5079870;28;20436;-65
2022/05/31 06:48:38;;;;;;;12.52;5.93;;;;;;;;;;5081726;28;20083;-66
2022/05/31 06:51:06;;;;;;;9.00;5.30;;;;;;;;;;5086097;28;20069;-65
2022/05/31 06:58:56;;;;;;;12.40;4.93;;;;;;;;;;5079090;28;20119;-66
2022/05/31 07:01:30;;;;;;;13.43;4.97;;;;;;;;;;5080775;28;21118;-65
2022/05/31 07:03:55;;;;;;;8.50;5.13;;;;;;;;;;5076446;28;20028;-66
2022/05/31 07:06:20;;;;;;;9.73;5.57;;;;;;;;;;5084760;28;20039;-65
2022/05/31 07:08:46;;;;;;;9.57;5.43;;;;;;;;;;5080215;28;20045;-65
2022/05/31 07:11:11;;;;;;;8.52;4.65;;;;;;;;;;5084815;28;20066;-65
2022/05/31 07:13:37;;;;;;;10.07;5.00;;;;;;;;;;5078698;28;20177;-67
2022/05/31 07:16:02;;;;;;;7.97;5.18;;;;;;;;;;5078424;28;20090;-67
2022/05/31 07:18:28;;;;;;;11.25;5.18;;;;;;;;;;5086301;28;20539;-67
2022/05/31 07:20:55;;;;;;;9.88;5.00;;;;;;;;;;5085621;28;20580;-65
2022/05/31 07:23:20;;;;;;;8.52;5.05;;;;;;;;;;5080320;28;20040;-67
2022/05/31 07:25:46;;;;;;;12.25;5.72;;;;;;;;;;5078989;28;20036;-65
2022/05/31 07:28:11;;;;;;;10.52;5.10;;;;;;;;;;5086518;28;20090;-66
2022/05/31 07:30:36;;;;;;;11.68;5.80;;;;;;;;;;5085095;28;20028;-66
2022/05/31 07:33:02;;;;;;;12.02;5.45;;;;;;;;;;5081634;28;20047;-66
2022/05/31 07:35:29;;;;;;;10.43;5.70;;;;;;;;;;5072582;28;20070;-66
2022/05/31 07:37:54;;;;;;;9.40;5.70;;;;;;;;;;5084414;28;20028;-65
2022/05/31 07:40:19;;;;;;;8.38;5.30;;;;;;;;;;5084701;28;20052;-66
2022/05/31 07:42:45;;;;;;;9.75;4.80;;;;;;;;;;5082818;28;20032;-65
2022/05/31 07:45:11;;;;;;;9.50;4.82;;;;;;;;;;5082362;28;20463;-65
2022/05/31 07:47:36;;;;;;;6.45;4.53;;;;;;;;;;5087234;28;20517;-65
2022/05/31 07:50:02;;;;;;;8.80;4.50;;;;;;;;;;5082908;28;20040;-65
2022/05/31 07:52:28;;;;;;;9.27;4.28;;;;;;;;;;5085680;28;20051;-65
2022/05/31 07:54:54;;;;;;;8.13;4.40;;;;;;;;;;5085081;28;20024;-65
2022/05/31 08:00:05;;;;;;;10.15;4.65;;;;;;;;;;5077598;28;20121;-65
2022/05/31 08:02:30;;;;;;;9.52;4.57;;;;;;;;;;5084922;28;20039;-65
2022/05/31 08:04:55;;;;;;;11.40;4.60;;;;;;;;;;5079737;28;20063;-65
2022/05/31 08:07:21;;;;;;;5.95;3.75;;;;;;;;;;5082162;28;20066;-65
2022/05/31 08:09:46;;;;;;;5.60;3.72;;;;;;;;;;5083142;28;20024;-65
2022/05/31 08:12:13;;;;;;;6.50;3.60;;;;;;;;;;5087069;28;20016;-66
2022/05/31 08:14:38;;;;;;;13.57;3.75;;;;;;;;;;5070194;28;20048;-67
2022/05/31 08:17:04;;;;;;;20.98;4.57;;;;;;;;;;5065785;28;20040;-67
2022/05/31 08:19:30;;;;;;;8.07;3.72;;;;;;;;;;5070242;28;20048;-67
2022/05/31 08:21:56;;;;;;;6.65;3.95;;;;;;;;;;5081197;28;20024;-66
2022/05/31 08:24:23;;;;;;;5.18;2.78;;;;;;;;;;5089233;28;20027;-67
2022/05/31 08:26:48;;;;;;;6.13;3.10;;;;;;;;;;5084482;28;20513;-67
2022/05/31 08:29:14;;;;;;;12.38;3.10;;;;;;;;;;5075690;28;20044;-68
2022/05/31 08:31:40;;;;;;;8.10;3.63;;;;;;;;;;5082394;28;20028;-68
2022/05/31 08:34:06;;;;;;;6.75;3.25;;;;;;;;;;5082456;28;20031;-68
2022/05/31 08:36:32;;;;;;;4.60;2.70;;;;;;;;;;5075485;28;20036;-68
2022/05/31 08:38:57;;;;;;;4.88;3.40;;;;;;;;;;5078232;28;20071;-67
2022/05/31 08:41:30;;;;;;;4.72;3.05;;;;;;;;;;5080801;28;20064;-68
2022/05/31 08:44:25;;;;;;;6.38;3.65;;;;;;;;;;5082102;28;20078;-67
2022/05/31 08:47:07;;;;;;;3.92;2.58;;;;;;;;;;5080186;28;20043;-67
2022/05/31 08:53:14;;;;;;;4.95;2.55;;;;;;;;;;5082091;28;20252;-68
2022/05/31 08:58:57;;;;;;;5.10;2.40;;;;;;;;;;5081783;28;20128;-67
2022/05/31 09:01:26;;;;;;;4.30;2.50;;;;;;;;;;5080402;28;20032;-69
2022/05/31 09:03:56;;;;;;;4.72;2.60;;;;;;;;;;5081460;28;20408;-69
2022/05/31 09:06:27;;;;;;;5.25;2.40;;;;;;;;;;5080928;28;20132;-69
2022/05/31 09:09:16;;;;;;;5.20;2.40;;;;;;;;;;5076198;28;20040;-69
2022/05/31 09:11:55;;;;;;;4.38;2.47;;;;;;;;;;5082983;28;20073;-68
2022/05/31 09:14:54;;;;;;;5.93;2.70;;;;;;;;;;5080724;28;20116;-68
2022/05/31 09:17:51;;;;;;;3.92;2.20;;;;;;;;;;5082809;28;20044;-70
2022/05/31 09:20:31;;;;;;;3.55;2.20;;;;;;;;;;5079550;28;20064;-70
2022/05/31 09:22:56;;;;;;;2.70;2.00;;;;;;;;;;5076671;28;20044;-69
2022/05/31 09:25:22;;;;;;;3.97;2.33;;;;;;;;;;5076349;28;20089;-69
2022/05/31 09:27:49;;;;;;;3.72;2.35;;;;;;;;;;5083159;28;20530;-69
2022/05/31 09:30:41;;;;;;;3.88;2.30;;;;;;;;;;5081690;28;20024;-70
2022/05/31 09:33:12;;;;;;;3.83;2.70;;;;;;;;;;5081841;28;20047;-69
2022/05/31 09:35:59;;;;;;;6.30;2.53;;;;;;;;;;5082634;28;20223;-69
2022/05/31 09:38:48;;;;;;;3.42;2.40;;;;;;;;;;5080246;28;20044;-69
2022/05/31 09:41:24;;;;;;;3.17;2.20;;;;;;;;;;5077476;28;20044;-69
2022/05/31 09:44:05;;;;;;;3.53;2.15;;;;;;;;;;5079172;28;20037;-69
2022/05/31 09:46:38;;;;;;;4.88;2.97;;;;;;;;;;5086203;28;20531;-69
2022/05/31 09:49:20;;;;;;;3.33;2.42;;;;;;;;;;5081409;28;20393;-68
2022/05/31 09:51:45;;;;;;;4.32;2.53;;;;;;;;;;5083114;28;20549;-69
2022/05/31 09:57:06;;;;;;;3.05;1.67;;;;;;;;;;5082734;28;20520;-69
2022/05/31 09:59:38;;;;;;;3.88;2.00;;;;;;;;;;5080046;28;20039;-69
2022/05/31 10:02:25;;;;;;;3.35;2.05;;;;;;;;;;5077748;28;20153;-69
2022/05/31 10:05:21;;;;;;;2.50;1.70;;;;;;;;;;5080440;28;20138;-69
2022/05/31 10:07:46;;;;;;;4.00;1.75;;;;;;;;;;5076403;28;20452;-68
2022/05/31 10:10:22;;;;;;;3.75;1.80;;;;;;;;;;5084699;28;20036;-71
2022/05/31 10:12:58;;;;;;;3.15;1.77;;;;;;;;;;5084270;28;20374;-69
2022/05/31 10:16:16;;;;;;;4.07;2.00;;;;;;;;;;5080354;28;20043;-71
2022/05/31 10:18:56;;;;;;;3.08;2.20;;;;;;;;;;5014955;28;20043;-70
2022/05/31 10:21:38;;;;;;;5.07;2.30;;;;;;;;;;5000454;28;20053;-70
2022/05/31 10:24:05;;;;;;;4.22;2.00;;;;;;;;;;5068891;28;20036;-70
2022/05/31 10:26:33;;;;;;;3.22;2.30;;;;;;;;;;5079383;28;20040;-70
2022/05/31 10:29:06;;;;;;;3.42;1.90;;;;;;;;;;5083293;28;20772;-70
2022/05/31 10:31:35;;;;;;;2.95;2.30;;;;;;;;;;5083191;28;20036;-70
2022/05/31 10:34:03;;;;;;;4.05;2.38;;;;;;;;;;5079125;28;20492;-69
2022/05/31 10:36:31;;;;;;;4.68;1.95;;;;;;;;;;5085453;28;20032;-70
2022/05/31 10:39:08;;;;;;;4.10;2.28;;;;;;;;;;5082932;28;20551;-70
2022/05/31 10:41:35;;;;;;;2.83;1.98;;;;;;;;;;5077150;28;20040;-70
2022/05/31 10:44:21;;;;;;;4.93;1.70;;;;;;;;;;5077132;28;20040;-68
2022/05/31 10:46:51;;;;;;;2.28;1.55;;;;;;;;;;5083941;28;20032;-67
2022/05/31 10:49:19;;;;;;;2.78;1.77;;;;;;;;;;5085040;28;20039;-67
2022/05/31 10:51:50;;;;;;;2.65;1.80;;;;;;;;;;5079962;28;20023;-67
2022/05/31 10:54:33;;;;;;;3.05;1.70;;;;;;;;;;5078589;28;20070;-68
2022/05/31 10:57:04;;;;;;;3.38;2.00;;;;;;;;;;5078791;28;20036;-68
2022/05/31 10:59:41;;;;;;;4.05;2.10;;;;;;;;;;5076850;28;20543;-68
2022/05/31 11:02:11;;;;;;;2.15;1.65;;;;;;;;;;5081147;28;20036;-68
2022/05/31 11:04:47;;;;;;;5.03;2.33;;;;;;;;;;5085526;28;20119;-69
2022/05/31 11:07:42;;;;;;;5.70;2.40;;;;;;;;;;5080483;28;20250;-73
2022/05/31 11:13:26;;;;;;;;;;;;;;;;;;5077337;28;20108;-70
2022/05/31 11:16:03;;;;;;;3.13;1.88;;;;;;;;;;5077149;28;19912;-69
2022/05/31 11:18:55;;;;;;;2.70;1.88;;;;;;;;;;5078249;28;20062;-69
2022/05/31 11:21:27;;;;;;;2.13;1.83;;;;;;;;;;5088430;28;20451;-68
2022/05/31 11:23:58;;;;;;;3.67;2.17;;;;;;;;;;5085398;28;20596;-68
2022/05/31 11:26:39;;;;;;;4.00;2.03;;;;;;;;;;5079751;28;20044;-67
2022/05/31 11:29:17;;;;;;;2.35;1.90;;;;;;;;;;5076348;28;20027;-69
2022/05/31 11:32:10;;;;;;;5.20;2.13;;;;;;;;;;5083768;28;20436;-71
2022/05/31 11:35:11;;;;;;;4.55;2.03;;;;;;;;;;5072534;28;20054;-70
2022/05/31 11:37:49;;;;;;;5.38;2.13;;;;;;;;;;5047572;28;20032;-71
2022/05/31 11:40:17;;;;;;;6.18;2.20;;;;;;;;;;5081480;28;20035;-71
2022/05/31 11:43:01;;;;;;;2.53;2.33;;;;;;;;;;5085122;28;20412;-70
2022/05/31 11:45:35;;;;;;;2.97;2.10;;;;;;;;;;5085342;28;20035;-68
2022/05/31 11:48:23;;;;;;;3.03;2.30;;;;;;;;;;5087987;28;20035;-68
2022/05/31 11:51:01;;;;;;;4.65;1.80;;;;;;;;;;5080213;28;20785;-68
2022/05/31 11:53:26;;;;;;;3.00;1.90;;;;;;;;;;5079808;28;20067;-68
2022/05/31 11:55:57;;;;;;;5.07;2.20;;;;;;;;;;5079256;28;20068;-69
2022/05/31 11:58:38;;;;;;;3.25;1.92;;;;;;;;;;5081023;28;20086;-70
2022/05/31 12:01:07;;;;;;;4.18;1.98;;;;;;;;;;5080173;28;20784;-69
2022/05/31 12:03:57;;;;;;;2.97;1.80;;;;;;;;;;5083802;28;20032;-67
2022/05/31 12:06:32;;;;;;;4.85;2.15;;;;;;;;;;5077035;28;20047;-68
2022/05/31 12:09:00;;;;;;;3.22;1.92;;;;;;;;;;5080665;28;20111;-69
2022/05/31 12:11:37;;;;;;;4.82;2.30;;;;;;;;;;5071838;28;20036;-69
2022/05/31 12:14:05;;;;;;;8.40;1.95;;;;;;;;;;5079562;28;20032;-67
2022/05/31 12:16:30;;;;;;;2.85;1.90;;;;;;;;;;5081524;28;20043;-66
2022/05/31 12:19:13;;;;;;;3.10;2.10;;;;;;;;;;5082914;28;20035;-68
2022/05/31 12:21:46;;;;;;;8.03;2.13;;;;;;;;;;5080434;28;20784;-68
2022/05/31 12:24:31;;;;;;;3.90;1.55;;;;;;;;;;5076530;28;20310;-69
2022/05/31 12:27:08;;;;;;;4.20;1.73;;;;;;;;;;5082765;28;20131;-69
2022/05/31 12:29:46;;;;;;;3.78;2.85;;;;;;;;;;5078744;28;20036;-68
2022/05/31 12:32:35;;;;;;;3.58;1.90;;;;;;;;;;5075458;28;20127;-67
2022/05/31 12:35:03;;;;;;;4.78;2.00;;;;;;;;;;5072128;28;20055;-67
2022/05/31 12:38:00;;;;;;;4.70;2.20;;;;;;;;;;5077166;28;20409;-66
2022/05/31 12:40:34;;;;;;;5.47;1.90;;;;;;;;;;5075498;28;20131;-68
2022/05/31 12:43:10;;;;;;;3.30;2.35;;;;;;;;;;5080201;28;20042;-69
2022/05/31 12:45:35;;;;;;;2.20;1.80;;;;;;;;;;5075010;28;20078;-68
2022/05/31 12:48:09;;;;;;;5.43;2.17;;;;;;;;;;5079412;28;20036;-69
2022/05/31 12:50:49;;;;;;;4.68;1.85;;;;;;;;;;5083791;28;20101;-70
2022/05/31 12:53:21;;;;;;;2.95;1.90;;;;;;;;;;5077974;28;20551;-68
2022/05/31 12:55:46;;;;;;;2.03;1.70;;;;;;;;;;5079717;28;20032;-68
2022/05/31 12:58:27;;;;;;;1.83;1.63;;;;;;;;;;5078484;28;20589;-68
2022/05/31 13:00:55;;;;;;;2.60;1.60;;;;;;;;;;5050066;28;20040;-68
2022/05/31 13:03:33;;;;;;;3.53;1.90;;;;;;;;;;5076504;28;20043;-68
2022/05/31 13:05:58;;;;;;;4.05;1.90;;;;;;;;;;5079642;28;20099;-69
2022/05/31 13:08:54;;;;;;;1.95;1.50;;;;;;;;;;5078738;28;20147;-67
2022/05/31 13:20:46;;;;;;;3.08;1.77;;;;;;;;;;5083671;28;20586;-67
2022/05/31 13:23:16;;;;;;;3.03;1.50;;;;;;;;;;5083347;28;20060;-68
2022/05/31 13:26:01;;;;;;;2.70;1.52;;;;;;;;;;5081341;28;20028;-67
2022/05/31 13:28:29;;;;;;;3.53;1.60;;;;;;;;;;5084053;28;20164;-68
2022/05/31 13:31:01;;;;;;;3.92;1.70;;;;;;;;;;5088957;28;20036;-67
2022/05/31 13:33:28;;;;;;;2.00;1.53;;;;;;;;;;5086342;28;20114;-68
2022/05/31 13:36:02;;;;;;;5.10;2.08;;;;;;;;;;5082960;28;20047;-67
2022/05/31 13:38:29;;;;;;;2.65;1.80;;;;;;;;;;5079120;28;20032;-67
2022/05/31 13:40:57;;;;;;;2.28;2.00;;;;;;;;;;5086203;28;20028;-66
2022/05/31 13:43:24;;;;;;;3.03;2.20;;;;;;;;;;5081824;28;20036;-67
2022/05/31 13:45:52;;;;;;;3.53;1.83;;;;;;;;;;5085033;28;20036;-68
2022/05/31 13:48:24;;;;;;;3.00;1.40;;;;;;;;;;5084476;28;20024;-67
2022/05/31 13:51:00;;;;;;;2.35;1.30;;;;;;;;;;5091522;28;20525;-67
2022/05/31 13:53:34;;;;;;;4.57;1.30;;;;;;;;;;5082915;28;20058;-67
2022/05/31 13:56:00;;;;;;;1.75;1.30;;;;;;;;;;5085883;28;20036;-66
2022/05/31 13:58:38;;;;;;;4.50;1.35;;;;;;;;;;5085455;28;20067;-67
2022/05/31 14:01:29;;;;;;;3.92;2.10;;;;;;;;;;5077854;28;20039;-67
2022/05/31 14:03:59;;;;;;;1.65;1.40;;;;;;;;;;5084510;28;20567;-66
2022/05/31 14:06:30;;;;;;;5.47;1.40;;;;;;;;;;5079663;28;20032;-67
2022/05/31 14:08:57;;;;;;;1.25;1.13;;;;;;;;;;5086428;28;20393;-67
2022/05/31 14:11:40;;;;;;;2.88;1.15;;;;;;;;;;5085544;28;20135;-67
2022/05/31 14:14:16;;;;;;;1.60;1.35;;;;;;;;;;5084686;28;20039;-67
2022/05/31 14:16:43;;;;;;;1.92;1.35;;;;;;;;;;5085964;28;20040;-67
2022/05/31 14:19:20;;;;;;;3.17;1.60;;;;;;;;;;5077793;28;20508;-67
2022/05/31 14:21:48;;;;;;;2.67;1.70;;;;;;;;;;5085116;28;20094;-68
2022/05/31 14:24:20;;;;;;;2.58;1.50;;;;;;;;;;5087516;28;20028;-68
2022/05/31 14:26:52;;;;;;;2.38;1.40;;;;;;;;;;5087413;28;20042;-68
2022/05/31 14:29:19;;;;;;;2.10;1.35;;;;;;;;;;5083554;28;20570;-68
2022/05/31 14:31:50;;;;;;;3.22;1.70;;;;;;;;;;5086925;28;20048;-68
2022/05/31 14:34:28;;;;;;;5.70;1.80;;;;;;;;;;5084529;28;20455;-68
2022/05/31 14:36:56;;;;;;;2.80;1.52;;;;;;;;;;5086227;28;20044;-67
2022/05/31 14:39:26;;;;;;;2.35;1.42;;;;;;;;;;5081989;28;20027;-67
2022/05/31 14:41:55;;;;;;;2.75;1.42;;;;;;;;;;5080871;28;20032;-67
2022/05/31 14:44:45;;;;;;;2.55;1.65;;;;;;;;;;5086338;28;20040;-67
2022/05/31 14:47:19;;;;;;;1.75;1.50;;;;;;;;;;5080640;28;20070;-67
2022/05/31 14:49:50;;;;;;;4.93;1.80;;;;;;;;;;5086762;28;20123;-68
2022/05/31 14:52:22;;;;;;;2.45;1.65;;;;;;;;;;5078517;28;20036;-68
2022/05/31 14:54:51;;;;;;;2.83;1.60;;;;;;;;;;5082016;28;20151;-68
2022/05/31 14:58:37;;;;;;;5.68;1.63;;;;;;;;;;5077107;28;20032;-68
2022/05/31 15:00:17;;;;;;;2.90;1.65;;;;;;;;;;5070931;28;20032;-67
2022/05/31 15:02:44;;;;;;;1.50;1.40;;;;;;;;;;5086592;28;20023;-67
2022/05/31 15:05:10;;;;;;;2.80;1.40;;;;;;;;;;5086377;28;20504;-66
2022/05/31 15:07:50;;;;;;;3.63;1.60;;;;;;;;;;5087520;28;20973;-67
2022/05/31 15:10:21;;;;;;;3.78;1.48;;;;;;;;;;5086611;28;20126;-68
2022/05/31 15:21:13;;;;;;;5.50;2.83;;;;;;;;;;5083024;28;20571;-70
2022/05/31 15:23:38;;;;;;;4.80;2.30;;;;;;;;;;5084721;28;20032;-70
2022/05/31 15:26:08;;;;;;;4.10;1.90;;;;;;;;;;5083923;28;20036;-71
2022/05/31 15:28:33;;;;;;;3.22;1.88;;;;;;;;;;5084570;28;20036;-71
2022/05/31 15:31:07;;;;;;;2.85;1.60;;;;;;;;;;5084846;28;20271;-70
2022/05/31 15:33:32;;;;;;;3.20;1.95;;;;;;;;;;5073052;28;20059;-71
2022/05/31 15:35:58;;;;;;;2.30;1.80;;;;;;;;;;5080090;28;20515;-70
2022/05/31 15:38:27;;;;;;;3.90;1.90;;;;;;;;;;5083660;28;20044;-70
2022/05/31 15:40:53;;;;;;;4.32;2.05;;;;;;;;;;5083918;28;20036;-69
2022/05/31 15:46:04;;;;;;;1.45;1.35;;;;;;;;;;5080622;28;20042;-70
2022/05/31 15:48:29;;;;;;;2.80;1.67;;;;;;;;;;5079940;28;20032;-71